Airfield :
LOGIN :

Register | Disclaimer

   EN    FR    IT 

 










Legend :    VFR   Marginal VFR   IFR   Intensive IFR   Very Intensive IFR
Visi :
Ceiling :
>= 8 km
>= 3000ft
5 to 8 km
1000 to 3000 ft
1500m to 5 km
500 to 1000 ft
800 to 1500m
200 to 500 ft
< 800m
< 200 ft
Symbols :   Thunderstorms  Fog  Heavy snow  Heavy precipitations  Wind > 20 kt
SIGMETs :     Misc.  Thunderstorms  Icing  Turbulence  Mountain Waves  Volcanic Ashes







- Airport Elevation : 1046 ft
- IATA code : NUE


EDDN - Nuremberg

CURRENT METAR :
  • 182150Z 12003KT 9999 MIFG NSC 09/08 Q1016

EXPIRED METARs :
  • 182120Z 11002KT 9999 R28/0450V1300N MIFG NSC 09/09 Q1016
  • 182050Z 09003KT 9999 R28/0650VP2000U MIFG NSC 09/09 Q1016
  • 182020Z 10005KT 9999 MIFG NSC 11/10 Q1016
  • 181950Z 11004KT 9999 MIFG NSC 10/09 Q1015 NOSIG
  • 181920Z 12004KT 9999 R28/0600VP2000D MIFG NSC 11/10 Q1015 NOSIG

TAF TAF EDDN
Valid from the 18 at 18:00 until the 19 at 18:00 UTC


181700Z 1818/1918 VRB03KT CAVOK
BECMG 1819/1821 12005KT
TEMPO 1900/1908 3000 BCFG
PROB30
TEMPO 1904/1907 0300 FG VV001
No reported NOTAMs for that airfield.



MET'MAP, your aeronautical weather chart ! - Copyright ORBIFLY December 2007 - Disclaimer

ORBIFLY MET'MAP TEAM :

Programming & Development : Alexandra Zaïnal
Concept & Development : Baudouin d'Aumeries
Co-Development & Prog : Marc-Olivier Méhu
Technical & hardware support : Manuel Goepfert

Contact : metmap@orbifly.com




SOURCES & CREDITS :

   NOAA